Aérodrome :
LOGIN :

S'inscrire | Disclaimer

   EN    FR    IT 

 










Légende :    VFR   VFR Marginal   IFR   IFR Intensif   IFR Très Intensif
Visi : 
Plafond : 
>= 8 km
>= 3000ft
5 à 8 km
1000 à 3000 ft
1500m à 5 km
500 à 1000 ft
800 à 1500m
200 à 500 ft
< 800m
< 200 ft
Symboles :   Orages  Brouillard  Fortes neiges  Fortes précipitations  Vent > 20 kt
SIGMETs :   Divers  Orages  Givrage  Turbulence  Onde Orograph.  Cendres Volcan.






- Altitude de l'aérodrome : 56 ft
- Code IATA : BZR


LFMU - Beziers / Vias

DERNIER METAR :
  • 202230Z AUTO VRB03KT 7000 NSC 06/05 Q1027

METARs EXPIRÉS :
  • 202200Z AUTO 35005KT 6000 NSC 06/05 Q1027
  • 202130Z AUTO VRB02KT CAVOK 05/04 Q1027
  • 202100Z AUTO 36003KT 340V060 CAVOK 06/05 Q1026
  • 202030Z AUTO VRB01KT CAVOK 06/05 Q1026
  • 202000Z AUTO 32002KT CAVOK 06/05 Q1026

TAF TAF LFMU
Valide du 20 à 15h jusqu'au 21 à 15h UTC


201400Z 2015/2115 18005KT CAVOK
BECMG 2019/2022 28010KT
TEMPO 2102/2108 BKN020
ATIS : +33 4 67 90 88 88



MET'MAP, la Météo Aéronautique d'un coup d'oeil ! - Copyright ORBIFLY Décembre 2007 - Disclaimer

ORBIFLY MET'MAP TEAM :

Programmation & Développement : Alexandra Zaïnal
Sur une idée originale de : Baudouin d'Aumeries
Assistance à la programmation : Marc-Olivier Méhu
Soutien technique & logistique : Manuel Goepfert

Contact : metmap@orbifly.com




SOURCES & CREDITS :

   NOAA